sensor_id;sensor_type;location;lat;lon;timestamp;P1;durP1;ratioP1;P2;durP2;ratioP2
70707;SDS011;58277;47.316;18.908;2023-01-24T00:01:11;21.45;;;8.70;;
70707;SDS011;58277;47.316;18.908;2023-01-24T00:03:34;21.20;;;8.85;;
70707;SDS011;58277;47.316;18.908;2023-01-24T00:05:56;18.37;;;8.00;;
70707;SDS011;58277;47.316;18.908;2023-01-24T00:08:20;18.83;;;7.95;;
70707;SDS011;58277;47.316;18.908;2023-01-24T00:10:45;18.05;;;7.90;;
70707;SDS011;58277;47.316;18.908;2023-01-24T00:13:12;17.45;;;7.53;;
70707;SDS011;58277;47.316;18.908;2023-01-24T00:15:35;15.93;;;7.15;;
70707;SDS011;58277;47.316;18.908;2023-01-24T00:17:58;15.87;;;6.93;;
70707;SDS011;58277;47.316;18.908;2023-01-24T00:20:21;14.23;;;7.07;;
70707;SDS011;58277;47.316;18.908;2023-01-24T00:22:44;13.48;;;6.60;;
70707;SDS011;58277;47.316;18.908;2023-01-24T00:25:06;16.02;;;6.63;;
70707;SDS011;58277;47.316;18.908;2023-01-24T00:27:29;14.77;;;7.28;;
70707;SDS011;58277;47.316;18.908;2023-01-24T00:29:54;16.47;;;6.90;;
70707;SDS011;58277;47.316;18.908;2023-01-24T00:32:17;15.77;;;6.88;;
70707;SDS011;58277;47.316;18.908;2023-01-24T00:34:40;14.55;;;7.60;;
70707;SDS011;58277;47.316;18.908;2023-01-24T00:37:03;13.77;;;6.60;;
70707;SDS011;58277;47.316;18.908;2023-01-24T00:39:25;15.15;;;6.97;;
70707;SDS011;58277;47.316;18.908;2023-01-24T00:41:48;16.00;;;7.03;;
70707;SDS011;58277;47.316;18.908;2023-01-24T00:44:11;15.82;;;6.70;;
70707;SDS011;58277;47.316;18.908;2023-01-24T00:46:34;15.30;;;7.03;;
70707;SDS011;58277;47.316;18.908;2023-01-24T00:48:57;14.82;;;6.60;;
70707;SDS011;58277;47.316;18.908;2023-01-24T00:51:21;16.63;;;7.35;;
70707;SDS011;58277;47.316;18.908;2023-01-24T00:53:45;16.63;;;7.20;;
70707;SDS011;58277;47.316;18.908;2023-01-24T00:56:08;14.10;;;6.20;;
70707;SDS011;58277;47.316;18.908;2023-01-24T00:58:31;16.20;;;6.88;;
70707;SDS011;58277;47.316;18.908;2023-01-24T01:00:55;15.13;;;6.47;;
70707;SDS011;58277;47.316;18.908;2023-01-24T01:03:19;18.73;;;7.43;;
70707;SDS011;58277;47.316;18.908;2023-01-24T01:05:42;18.00;;;6.83;;
70707;SDS011;58277;47.316;18.908;2023-01-24T01:08:05;13.75;;;6.53;;
70707;SDS011;58277;47.316;18.908;2023-01-24T01:10:28;15.73;;;7.55;;
70707;SDS011;58277;47.316;18.908;2023-01-24T01:12:51;15.07;;;7.03;;
70707;SDS011;58277;47.316;18.908;2023-01-24T01:15:14;16.13;;;7.22;;
70707;SDS011;58277;47.316;18.908;2023-01-24T01:17:37;15.33;;;7.27;;
70707;SDS011;58277;47.316;18.908;2023-01-24T01:19:59;14.10;;;6.85;;
70707;SDS011;58277;47.316;18.908;2023-01-24T01:22:22;17.20;;;7.22;;
70707;SDS011;58277;47.316;18.908;2023-01-24T01:24:45;17.33;;;7.05;;
70707;SDS011;58277;47.316;18.908;2023-01-24T01:27:08;16.70;;;7.60;;
70707;SDS011;58277;47.316;18.908;2023-01-24T01:29:32;18.00;;;7.70;;
70707;SDS011;58277;47.316;18.908;2023-01-24T01:31:56;16.13;;;6.85;;
70707;SDS011;58277;47.316;18.908;2023-01-24T01:34:18;15.95;;;7.30;;
70707;SDS011;58277;47.316;18.908;2023-01-24T01:36:41;16.05;;;7.53;;
70707;SDS011;58277;47.316;18.908;2023-01-24T01:39:04;15.00;;;7.20;;
70707;SDS011;58277;47.316;18.908;2023-01-24T01:41:26;16.33;;;7.17;;
70707;SDS011;58277;47.316;18.908;2023-01-24T01:43:49;17.23;;;8.00;;
70707;SDS011;58277;47.316;18.908;2023-01-24T01:46:49;18.13;;;7.30;;
70707;SDS011;58277;47.316;18.908;2023-01-24T01:49:16;15.07;;;6.82;;
70707;SDS011;58277;47.316;18.908;2023-01-24T01:51:43;15.00;;;7.10;;
70707;SDS011;58277;47.316;18.908;2023-01-24T01:54:09;17.10;;;7.60;;
70707;SDS011;58277;47.316;18.908;2023-01-24T01:59:11;17.85;;;7.28;;
70707;SDS011;58277;47.316;18.908;2023-01-24T02:01:39;15.20;;;7.03;;
70707;SDS011;58277;47.316;18.908;2023-01-24T02:04:04;17.98;;;7.30;;
70707;SDS011;58277;47.316;18.908;2023-01-24T02:08:53;15.02;;;6.88;;
70707;SDS011;58277;47.316;18.908;2023-01-24T02:11:17;17.27;;;6.90;;
70707;SDS011;58277;47.316;18.908;2023-01-24T02:13:59;16.05;;;6.70;;
70707;SDS011;58277;47.316;18.908;2023-01-24T02:16:41;15.45;;;6.93;;
70707;SDS011;58277;47.316;18.908;2023-01-24T02:19:05;15.27;;;7.17;;
70707;SDS011;58277;47.316;18.908;2023-01-24T02:21:32;16.52;;;6.97;;
70707;SDS011;58277;47.316;18.908;2023-01-24T02:24:01;15.75;;;7.22;;
70707;SDS011;58277;47.316;18.908;2023-01-24T02:26:28;17.05;;;7.30;;
70707;SDS011;58277;47.316;18.908;2023-01-24T02:28:56;14.80;;;6.97;;
70707;SDS011;58277;47.316;18.908;2023-01-24T02:31:22;16.40;;;7.43;;
70707;SDS011;58277;47.316;18.908;2023-01-24T02:33:45;16.20;;;7.43;;
70707;SDS011;58277;47.316;18.908;2023-01-24T02:38:35;15.32;;;7.03;;
70707;SDS011;58277;47.316;18.908;2023-01-24T02:40:58;16.08;;;7.40;;
70707;SDS011;58277;47.316;18.908;2023-01-24T02:43:29;15.77;;;7.20;;
70707;SDS011;58277;47.316;18.908;2023-01-24T02:45:52;14.65;;;6.95;;
70707;SDS011;58277;47.316;18.908;2023-01-24T02:48:15;20.33;;;7.72;;
70707;SDS011;58277;47.316;18.908;2023-01-24T02:50:38;16.90;;;7.43;;
70707;SDS011;58277;47.316;18.908;2023-01-24T02:53:20;16.95;;;7.68;;
70707;SDS011;58277;47.316;18.908;2023-01-24T02:55:52;18.67;;;7.87;;
70707;SDS011;58277;47.316;18.908;2023-01-24T02:58:33;17.92;;;7.60;;
70707;SDS011;58277;47.316;18.908;2023-01-24T03:00:57;17.58;;;7.65;;
70707;SDS011;58277;47.316;18.908;2023-01-24T03:03:20;17.42;;;7.68;;
70707;SDS011;58277;47.316;18.908;2023-01-24T03:05:44;16.13;;;7.38;;
70707;SDS011;58277;47.316;18.908;2023-01-24T03:08:29;18.10;;;7.73;;
70707;SDS011;58277;47.316;18.908;2023-01-24T03:10:54;15.07;;;7.13;;
70707;SDS011;58277;47.316;18.908;2023-01-24T03:13:18;16.98;;;7.88;;
70707;SDS011;58277;47.316;18.908;2023-01-24T03:16:00;17.77;;;7.68;;
70707;SDS011;58277;47.316;18.908;2023-01-24T03:18:43;17.13;;;7.47;;
70707;SDS011;58277;47.316;18.908;2023-01-24T03:21:24;20.37;;;8.10;;
70707;SDS011;58277;47.316;18.908;2023-01-24T03:24:05;17.40;;;7.60;;
70707;SDS011;58277;47.316;18.908;2023-01-24T03:26:47;16.38;;;7.38;;
70707;SDS011;58277;47.316;18.908;2023-01-24T03:29:29;18.60;;;8.27;;
70707;SDS011;58277;47.316;18.908;2023-01-24T03:32:10;17.50;;;7.50;;
70707;SDS011;58277;47.316;18.908;2023-01-24T03:34:52;17.13;;;7.77;;
70707;SDS011;58277;47.316;18.908;2023-01-24T03:37:17;16.63;;;7.70;;
70707;SDS011;58277;47.316;18.908;2023-01-24T03:40:03;16.38;;;7.57;;
70707;SDS011;58277;47.316;18.908;2023-01-24T03:42:27;17.63;;;7.28;;
70707;SDS011;58277;47.316;18.908;2023-01-24T03:44:50;16.75;;;7.68;;
70707;SDS011;58277;47.316;18.908;2023-01-24T03:47:13;17.00;;;6.83;;
70707;SDS011;58277;47.316;18.908;2023-01-24T03:49:36;17.63;;;7.32;;
70707;SDS011;58277;47.316;18.908;2023-01-24T03:52:17;17.38;;;7.80;;
70707;SDS011;58277;47.316;18.908;2023-01-24T03:55:02;18.92;;;7.50;;
70707;SDS011;58277;47.316;18.908;2023-01-24T03:57:27;16.85;;;7.65;;
70707;SDS011;58277;47.316;18.908;2023-01-24T03:59:55;16.13;;;7.10;;
70707;SDS011;58277;47.316;18.908;2023-01-24T04:02:19;18.23;;;7.70;;
70707;SDS011;58277;47.316;18.908;2023-01-24T04:04:43;21.38;;;9.93;;
70707;SDS011;58277;47.316;18.908;2023-01-24T04:07:26;16.48;;;7.30;;
70707;SDS011;58277;47.316;18.908;2023-01-24T04:09:56;16.80;;;7.30;;
70707;SDS011;58277;47.316;18.908;2023-01-24T04:12:21;16.30;;;7.20;;
70707;SDS011;58277;47.316;18.908;2023-01-24T04:17:29;17.35;;;8.02;;
70707;SDS011;58277;47.316;18.908;2023-01-24T04:19:52;17.52;;;7.35;;
70707;SDS011;58277;47.316;18.908;2023-01-24T04:22:17;18.98;;;7.93;;
70707;SDS011;58277;47.316;18.908;2023-01-24T04:24:40;19.33;;;7.83;;
70707;SDS011;58277;47.316;18.908;2023-01-24T04:27:02;16.08;;;7.35;;
70707;SDS011;58277;47.316;18.908;2023-01-24T04:29:41;19.98;;;7.80;;
70707;SDS011;58277;47.316;18.908;2023-01-24T04:32:04;17.27;;;7.90;;
70707;SDS011;58277;47.316;18.908;2023-01-24T04:34:34;17.20;;;7.70;;
70707;SDS011;58277;47.316;18.908;2023-01-24T04:36:58;17.17;;;7.77;;
70707;SDS011;58277;47.316;18.908;2023-01-24T04:39:20;18.35;;;8.00;;
70707;SDS011;58277;47.316;18.908;2023-01-24T04:41:56;17.48;;;7.53;;
70707;SDS011;58277;47.316;18.908;2023-01-24T04:44:19;18.05;;;7.60;;
70707;SDS011;58277;47.316;18.908;2023-01-24T04:46:41;18.08;;;7.82;;
70707;SDS011;58277;47.316;18.908;2023-01-24T04:49:05;18.40;;;7.67;;
70707;SDS011;58277;47.316;18.908;2023-01-24T04:51:35;17.88;;;7.28;;
70707;SDS011;58277;47.316;18.908;2023-01-24T04:54:02;17.15;;;7.50;;
70707;SDS011;58277;47.316;18.908;2023-01-24T04:56:25;17.95;;;7.78;;
70707;SDS011;58277;47.316;18.908;2023-01-24T04:58:50;16.55;;;7.80;;
70707;SDS011;58277;47.316;18.908;2023-01-24T05:01:14;16.37;;;7.13;;
70707;SDS011;58277;47.316;18.908;2023-01-24T05:03:48;16.40;;;7.43;;
70707;SDS011;58277;47.316;18.908;2023-01-24T05:06:11;15.70;;;7.35;;
70707;SDS011;58277;47.316;18.908;2023-01-24T05:08:34;17.35;;;7.47;;
70707;SDS011;58277;47.316;18.908;2023-01-24T05:11:02;18.15;;;7.07;;
70707;SDS011;58277;47.316;18.908;2023-01-24T05:13:30;16.60;;;7.47;;
70707;SDS011;58277;47.316;18.908;2023-01-24T05:15:52;17.40;;;7.10;;
70707;SDS011;58277;47.316;18.908;2023-01-24T05:18:15;15.45;;;7.60;;
70707;SDS011;58277;47.316;18.908;2023-01-24T05:20:38;15.18;;;6.78;;
70707;SDS011;58277;47.316;18.908;2023-01-24T05:23:01;17.10;;;7.07;;
70707;SDS011;58277;47.316;18.908;2023-01-24T05:25:29;15.00;;;7.50;;
70707;SDS011;58277;47.316;18.908;2023-01-24T05:27:52;13.85;;;6.53;;
70707;SDS011;58277;47.316;18.908;2023-01-24T05:30:19;17.30;;;7.10;;
70707;SDS011;58277;47.316;18.908;2023-01-24T05:32:44;18.52;;;7.28;;
70707;SDS011;58277;47.316;18.908;2023-01-24T05:35:07;18.70;;;8.10;;
70707;SDS011;58277;47.316;18.908;2023-01-24T05:37:31;16.80;;;7.37;;
70707;SDS011;58277;47.316;18.908;2023-01-24T05:39:55;16.05;;;6.72;;
70707;SDS011;58277;47.316;18.908;2023-01-24T05:42:18;15.00;;;7.20;;
70707;SDS011;58277;47.316;18.908;2023-01-24T05:44:44;16.30;;;7.75;;
70707;SDS011;58277;47.316;18.908;2023-01-24T05:47:07;16.23;;;7.10;;
70707;SDS011;58277;47.316;18.908;2023-01-24T05:49:35;18.23;;;7.10;;
70707;SDS011;58277;47.316;18.908;2023-01-24T05:51:58;19.50;;;7.70;;
70707;SDS011;58277;47.316;18.908;2023-01-24T05:54:35;15.98;;;7.10;;
70707;SDS011;58277;47.316;18.908;2023-01-24T05:57:02;18.70;;;8.02;;
70707;SDS011;58277;47.316;18.908;2023-01-24T05:59:39;17.40;;;7.50;;
70707;SDS011;58277;47.316;18.908;2023-01-24T06:02:03;16.30;;;7.10;;
70707;SDS011;58277;47.316;18.908;2023-01-24T06:04:25;17.38;;;7.30;;
70707;SDS011;58277;47.316;18.908;2023-01-24T06:06:48;16.95;;;7.47;;
70707;SDS011;58277;47.316;18.908;2023-01-24T06:09:11;16.42;;;6.65;;
70707;SDS011;58277;47.316;18.908;2023-01-24T06:11:34;19.17;;;7.82;;
70707;SDS011;58277;47.316;18.908;2023-01-24T06:14:11;16.53;;;7.17;;
70707;SDS011;58277;47.316;18.908;2023-01-24T06:16:36;22.92;;;7.50;;
70707;SDS011;58277;47.316;18.908;2023-01-24T06:18:58;17.52;;;7.40;;
70707;SDS011;58277;47.316;18.908;2023-01-24T06:27:08;21.90;;;8.00;;
70707;SDS011;58277;47.316;18.908;2023-01-24T06:29:34;23.23;;;8.63;;
70707;SDS011;58277;47.316;18.908;2023-01-24T06:34:51;23.67;;;8.70;;
70707;SDS011;58277;47.316;18.908;2023-01-24T06:39:59;20.90;;;8.90;;
70707;SDS011;58277;47.316;18.908;2023-01-24T06:42:22;20.90;;;9.25;;
70707;SDS011;58277;47.316;18.908;2023-01-24T06:44:47;17.77;;;8.07;;
70707;SDS011;58277;47.316;18.908;2023-01-24T06:47:11;19.58;;;8.90;;
70707;SDS011;58277;47.316;18.908;2023-01-24T06:49:35;19.40;;;9.35;;
70707;SDS011;58277;47.316;18.908;2023-01-24T06:51:57;21.07;;;8.20;;
70707;SDS011;58277;47.316;18.908;2023-01-24T06:54:20;16.40;;;7.78;;
70707;SDS011;58277;47.316;18.908;2023-01-24T06:56:44;19.65;;;8.88;;
70707;SDS011;58277;47.316;18.908;2023-01-24T06:59:07;18.25;;;7.85;;
70707;SDS011;58277;47.316;18.908;2023-01-24T07:01:30;24.08;;;9.43;;
70707;SDS011;58277;47.316;18.908;2023-01-24T07:03:53;86.87;;;25.40;;
70707;SDS011;58277;47.316;18.908;2023-01-24T07:06:16;47.42;;;15.82;;
70707;SDS011;58277;47.316;18.908;2023-01-24T07:08:38;24.42;;;10.32;;
70707;SDS011;58277;47.316;18.908;2023-01-24T07:11:01;24.17;;;9.70;;
70707;SDS011;58277;47.316;18.908;2023-01-24T07:13:24;22.15;;;9.45;;
70707;SDS011;58277;47.316;18.908;2023-01-24T07:15:47;21.37;;;9.93;;
70707;SDS011;58277;47.316;18.908;2023-01-24T07:18:13;20.88;;;9.50;;
70707;SDS011;58277;47.316;18.908;2023-01-24T07:20:38;20.00;;;8.55;;
70707;SDS011;58277;47.316;18.908;2023-01-24T07:23:01;18.88;;;8.45;;
70707;SDS011;58277;47.316;18.908;2023-01-24T07:25:25;21.50;;;8.63;;
70707;SDS011;58277;47.316;18.908;2023-01-24T07:27:49;18.93;;;8.80;;
70707;SDS011;58277;47.316;18.908;2023-01-24T07:30:12;22.92;;;10.30;;
70707;SDS011;58277;47.316;18.908;2023-01-24T07:32:35;22.27;;;9.93;;
70707;SDS011;58277;47.316;18.908;2023-01-24T07:34:58;26.50;;;11.02;;
70707;SDS011;58277;47.316;18.908;2023-01-24T07:37:21;23.63;;;10.63;;
70707;SDS011;58277;47.316;18.908;2023-01-24T07:39:46;24.73;;;11.67;;
70707;SDS011;58277;47.316;18.908;2023-01-24T07:42:10;25.52;;;11.57;;
70707;SDS011;58277;47.316;18.908;2023-01-24T07:44:33;26.08;;;12.40;;
70707;SDS011;58277;47.316;18.908;2023-01-24T07:46:56;27.15;;;11.57;;
70707;SDS011;58277;47.316;18.908;2023-01-24T07:49:18;26.67;;;12.10;;
70707;SDS011;58277;47.316;18.908;2023-01-24T07:51:41;25.43;;;11.03;;
70707;SDS011;58277;47.316;18.908;2023-01-24T07:54:04;22.90;;;9.82;;
70707;SDS011;58277;47.316;18.908;2023-01-24T07:56:30;20.30;;;9.55;;
70707;SDS011;58277;47.316;18.908;2023-01-24T07:58:53;24.45;;;9.35;;
70707;SDS011;58277;47.316;18.908;2023-01-24T08:01:17;21.17;;;9.35;;
70707;SDS011;58277;47.316;18.908;2023-01-24T08:03:40;22.20;;;10.07;;
70707;SDS011;58277;47.316;18.908;2023-01-24T08:06:04;22.17;;;10.20;;
70707;SDS011;58277;47.316;18.908;2023-01-24T08:08:27;20.33;;;9.70;;
70707;SDS011;58277;47.316;18.908;2023-01-24T08:10:49;21.08;;;9.75;;
70707;SDS011;58277;47.316;18.908;2023-01-24T08:13:12;22.80;;;10.88;;
70707;SDS011;58277;47.316;18.908;2023-01-24T08:15:35;21.40;;;10.23;;
70707;SDS011;58277;47.316;18.908;2023-01-24T08:18:01;18.73;;;8.70;;
70707;SDS011;58277;47.316;18.908;2023-01-24T08:20:24;19.15;;;8.90;;
70707;SDS011;58277;47.316;18.908;2023-01-24T08:22:47;17.88;;;7.85;;
70707;SDS011;58277;47.316;18.908;2023-01-24T08:25:25;16.23;;;7.70;;
70707;SDS011;58277;47.316;18.908;2023-01-24T08:27:49;18.73;;;8.70;;
70707;SDS011;58277;47.316;18.908;2023-01-24T08:30:12;15.68;;;7.07;;
70707;SDS011;58277;47.316;18.908;2023-01-24T08:32:38;14.48;;;7.05;;
70707;SDS011;58277;47.316;18.908;2023-01-24T08:35:00;16.83;;;8.60;;
70707;SDS011;58277;47.316;18.908;2023-01-24T08:37:23;17.55;;;7.65;;
70707;SDS011;58277;47.316;18.908;2023-01-24T08:39:46;17.20;;;8.03;;
70707;SDS011;58277;47.316;18.908;2023-01-24T08:42:09;16.30;;;7.30;;
70707;SDS011;58277;47.316;18.908;2023-01-24T08:44:32;17.45;;;7.80;;
70707;SDS011;58277;47.316;18.908;2023-01-24T08:46:55;18.10;;;8.32;;
70707;SDS011;58277;47.316;18.908;2023-01-24T08:49:17;15.30;;;7.63;;
70707;SDS011;58277;47.316;18.908;2023-01-24T08:51:40;17.00;;;8.25;;
70707;SDS011;58277;47.316;18.908;2023-01-24T08:54:04;22.35;;;10.88;;
70707;SDS011;58277;47.316;18.908;2023-01-24T08:56:28;25.48;;;12.45;;
70707;SDS011;58277;47.316;18.908;2023-01-24T08:58:50;17.23;;;8.60;;
70707;SDS011;58277;47.316;18.908;2023-01-24T09:01:14;15.98;;;7.72;;
70707;SDS011;58277;47.316;18.908;2023-01-24T09:03:37;21.93;;;9.53;;
70707;SDS011;58277;47.316;18.908;2023-01-24T09:05:59;17.35;;;7.95;;
70707;SDS011;58277;47.316;18.908;2023-01-24T09:08:23;17.38;;;8.07;;
70707;SDS011;58277;47.316;18.908;2023-01-24T09:10:46;18.23;;;7.82;;
70707;SDS011;58277;47.316;18.908;2023-01-24T09:13:08;16.90;;;8.20;;
70707;SDS011;58277;47.316;18.908;2023-01-24T09:15:31;15.63;;;7.53;;
70707;SDS011;58277;47.316;18.908;2023-01-24T09:17:54;16.52;;;6.85;;
70707;SDS011;58277;47.316;18.908;2023-01-24T09:20:17;16.00;;;7.22;;
70707;SDS011;58277;47.316;18.908;2023-01-24T09:22:40;20.83;;;10.18;;
70707;SDS011;58277;47.316;18.908;2023-01-24T09:25:03;19.92;;;9.10;;
70707;SDS011;58277;47.316;18.908;2023-01-24T09:27:27;19.17;;;9.30;;
70707;SDS011;58277;47.316;18.908;2023-01-24T09:29:50;19.45;;;8.65;;
70707;SDS011;58277;47.316;18.908;2023-01-24T09:32:14;19.52;;;9.32;;
70707;SDS011;58277;47.316;18.908;2023-01-24T09:34:39;20.60;;;8.90;;
70707;SDS011;58277;47.316;18.908;2023-01-24T09:37:08;20.38;;;9.98;;
70707;SDS011;58277;47.316;18.908;2023-01-24T09:39:30;22.38;;;9.90;;
70707;SDS011;58277;47.316;18.908;2023-01-24T09:41:57;22.45;;;9.90;;
70707;SDS011;58277;47.316;18.908;2023-01-24T09:47:06;22.30;;;9.73;;
70707;SDS011;58277;47.316;18.908;2023-01-24T09:50:02;22.63;;;10.52;;
70707;SDS011;58277;47.316;18.908;2023-01-24T09:52:31;37.97;;;15.52;;
70707;SDS011;58277;47.316;18.908;2023-01-24T09:55:03;35.30;;;16.17;;
70707;SDS011;58277;47.316;18.908;2023-01-24T09:57:43;30.83;;;13.63;;
70707;SDS011;58277;47.316;18.908;2023-01-24T10:00:15;30.05;;;13.75;;
70707;SDS011;58277;47.316;18.908;2023-01-24T10:02:59;22.30;;;10.95;;
70707;SDS011;58277;47.316;18.908;2023-01-24T10:05:37;24.70;;;11.43;;
70707;SDS011;58277;47.316;18.908;2023-01-24T10:10:49;21.35;;;10.10;;
70707;SDS011;58277;47.316;18.908;2023-01-24T10:16:06;20.90;;;9.60;;
70707;SDS011;58277;47.316;18.908;2023-01-24T10:24:17;19.88;;;9.32;;
70707;SDS011;58277;47.316;18.908;2023-01-24T10:26:47;21.83;;;9.77;;
70707;SDS011;58277;47.316;18.908;2023-01-24T10:29:21;21.45;;;9.60;;
70707;SDS011;58277;47.316;18.908;2023-01-24T10:31:59;21.57;;;9.37;;
70707;SDS011;58277;47.316;18.908;2023-01-24T10:34:31;22.38;;;11.00;;
70707;SDS011;58277;47.316;18.908;2023-01-24T10:36:58;22.88;;;10.77;;
70707;SDS011;58277;47.316;18.908;2023-01-24T10:39:27;27.80;;;10.98;;
70707;SDS011;58277;47.316;18.908;2023-01-24T10:41:53;27.48;;;12.23;;
70707;SDS011;58277;47.316;18.908;2023-01-24T10:49:30;30.92;;;13.88;;
70707;SDS011;58277;47.316;18.908;2023-01-24T10:54:50;30.92;;;14.32;;
70707;SDS011;58277;47.316;18.908;2023-01-24T11:00:17;32.28;;;14.10;;
70707;SDS011;58277;47.316;18.908;2023-01-24T11:02:51;29.27;;;14.13;;
70707;SDS011;58277;47.316;18.908;2023-01-24T11:05:15;31.25;;;13.23;;
70707;SDS011;58277;47.316;18.908;2023-01-24T11:07:44;30.15;;;13.73;;
70707;SDS011;58277;47.316;18.908;2023-01-24T11:10:19;30.40;;;14.20;;
70707;SDS011;58277;47.316;18.908;2023-01-24T11:12:52;30.02;;;13.98;;
70707;SDS011;58277;47.316;18.908;2023-01-24T11:15:22;28.85;;;13.82;;
70707;SDS011;58277;47.316;18.908;2023-01-24T11:17:58;28.80;;;13.88;;
70707;SDS011;58277;47.316;18.908;2023-01-24T11:20:30;32.92;;;14.63;;
70707;SDS011;58277;47.316;18.908;2023-01-24T11:23:16;29.75;;;14.40;;
70707;SDS011;58277;47.316;18.908;2023-01-24T11:28:30;34.20;;;15.48;;
70707;SDS011;58277;47.316;18.908;2023-01-24T11:30:55;32.72;;;15.27;;
70707;SDS011;58277;47.316;18.908;2023-01-24T11:33:31;31.45;;;15.35;;
70707;SDS011;58277;47.316;18.908;2023-01-24T11:36:07;34.75;;;16.58;;
70707;SDS011;58277;47.316;18.908;2023-01-24T11:38:49;34.92;;;16.00;;
70707;SDS011;58277;47.316;18.908;2023-01-24T11:46:51;37.08;;;17.13;;
70707;SDS011;58277;47.316;18.908;2023-01-24T11:55:03;31.52;;;15.57;;
70707;SDS011;58277;47.316;18.908;2023-01-24T12:00:35;34.10;;;16.83;;
70707;SDS011;58277;47.316;18.908;2023-01-24T12:16:21;31.73;;;15.30;;
70707;SDS011;58277;47.316;18.908;2023-01-24T12:21:46;29.33;;;13.82;;
70707;SDS011;58277;47.316;18.908;2023-01-24T12:24:11;31.13;;;14.18;;
70707;SDS011;58277;47.316;18.908;2023-01-24T12:26:45;33.55;;;14.57;;
70707;SDS011;58277;47.316;18.908;2023-01-24T12:29:22;27.27;;;13.77;;
70707;SDS011;58277;47.316;18.908;2023-01-24T12:34:49;29.13;;;13.20;;
70707;SDS011;58277;47.316;18.908;2023-01-24T12:37:38;30.48;;;13.20;;
70707;SDS011;58277;47.316;18.908;2023-01-24T12:42:55;31.40;;;13.77;;
70707;SDS011;58277;47.316;18.908;2023-01-24T12:45:25;31.23;;;13.82;;
70707;SDS011;58277;47.316;18.908;2023-01-24T12:48:48;29.23;;;13.63;;
70707;SDS011;58277;47.316;18.908;2023-01-24T12:50:56;30.13;;;13.95;;
70707;SDS011;58277;47.316;18.908;2023-01-24T12:53:36;30.73;;;14.10;;
70707;SDS011;58277;47.316;18.908;2023-01-24T12:58:36;35.05;;;16.17;;
70707;SDS011;58277;47.316;18.908;2023-01-24T13:03:53;32.30;;;15.52;;
70707;SDS011;58277;47.316;18.908;2023-01-24T13:11:39;35.40;;;16.75;;
70707;SDS011;58277;47.316;18.908;2023-01-24T13:28:11;29.75;;;13.63;;
70707;SDS011;58277;47.316;18.908;2023-01-24T13:30:55;27.60;;;13.55;;
70707;SDS011;58277;47.316;18.908;2023-01-24T13:33:40;30.80;;;14.15;;
70707;SDS011;58277;47.316;18.908;2023-01-24T13:36:08;31.58;;;14.38;;
70707;SDS011;58277;47.316;18.908;2023-01-24T13:38:34;30.88;;;13.95;;
70707;SDS011;58277;47.316;18.908;2023-01-24T13:41:03;29.63;;;13.82;;
70707;SDS011;58277;47.316;18.908;2023-01-24T13:45:59;29.40;;;12.90;;
70707;SDS011;58277;47.316;18.908;2023-01-24T13:53:57;25.55;;;11.65;;
70707;SDS011;58277;47.316;18.908;2023-01-24T13:56:23;26.90;;;12.48;;
70707;SDS011;58277;47.316;18.908;2023-01-24T13:58:45;26.98;;;11.77;;
70707;SDS011;58277;47.316;18.908;2023-01-24T14:01:14;21.73;;;10.65;;
70707;SDS011;58277;47.316;18.908;2023-01-24T14:03:39;25.27;;;11.68;;
70707;SDS011;58277;47.316;18.908;2023-01-24T14:06:15;22.98;;;10.35;;
70707;SDS011;58277;47.316;18.908;2023-01-24T14:08:43;20.98;;;10.68;;
70707;SDS011;58277;47.316;18.908;2023-01-24T14:11:14;21.75;;;10.25;;
70707;SDS011;58277;47.316;18.908;2023-01-24T14:19:00;25.80;;;11.30;;
70707;SDS011;58277;47.316;18.908;2023-01-24T14:21:57;24.23;;;10.60;;
70707;SDS011;58277;47.316;18.908;2023-01-24T14:24:31;26.70;;;11.30;;
70707;SDS011;58277;47.316;18.908;2023-01-24T14:26:58;29.48;;;12.50;;
70707;SDS011;58277;47.316;18.908;2023-01-24T14:29:26;25.27;;;10.77;;
70707;SDS011;58277;47.316;18.908;2023-01-24T14:35:00;26.10;;;11.70;;
70707;SDS011;58277;47.316;18.908;2023-01-24T14:37:35;27.73;;;11.85;;
70707;SDS011;58277;47.316;18.908;2023-01-24T14:43:01;30.42;;;13.07;;
70707;SDS011;58277;47.316;18.908;2023-01-24T14:45:26;27.92;;;12.30;;
70707;SDS011;58277;47.316;18.908;2023-01-24T14:47:50;25.63;;;12.00;;
70707;SDS011;58277;47.316;18.908;2023-01-24T14:52:55;28.47;;;13.23;;
70707;SDS011;58277;47.316;18.908;2023-01-24T14:57:49;30.50;;;13.35;;
70707;SDS011;58277;47.316;18.908;2023-01-24T15:02:36;31.65;;;14.32;;
70707;SDS011;58277;47.316;18.908;2023-01-24T15:07:50;37.75;;;15.88;;
70707;SDS011;58277;47.316;18.908;2023-01-24T15:10:13;41.63;;;16.38;;
70707;SDS011;58277;47.316;18.908;2023-01-24T15:12:36;39.88;;;17.20;;
70707;SDS011;58277;47.316;18.908;2023-01-24T15:14:59;42.15;;;18.05;;
70707;SDS011;58277;47.316;18.908;2023-01-24T15:17:28;41.17;;;17.43;;
70707;SDS011;58277;47.316;18.908;2023-01-24T15:19:53;39.92;;;17.08;;
70707;SDS011;58277;47.316;18.908;2023-01-24T15:22:21;43.33;;;16.95;;
70707;SDS011;58277;47.316;18.908;2023-01-24T15:24:48;41.65;;;17.02;;
70707;SDS011;58277;47.316;18.908;2023-01-24T15:27:20;38.30;;;16.23;;
70707;SDS011;58277;47.316;18.908;2023-01-24T15:29:49;41.73;;;17.57;;
70707;SDS011;58277;47.316;18.908;2023-01-24T15:35:12;43.60;;;18.00;;
70707;SDS011;58277;47.316;18.908;2023-01-24T15:37:46;44.53;;;19.25;;
70707;SDS011;58277;47.316;18.908;2023-01-24T15:40:14;40.95;;;17.55;;
70707;SDS011;58277;47.316;18.908;2023-01-24T15:42:42;45.63;;;18.47;;
70707;SDS011;58277;47.316;18.908;2023-01-24T15:45:25;45.92;;;18.77;;
70707;SDS011;58277;47.316;18.908;2023-01-24T15:48:05;42.47;;;17.45;;
70707;SDS011;58277;47.316;18.908;2023-01-24T15:50:51;42.15;;;17.75;;
70707;SDS011;58277;47.316;18.908;2023-01-24T15:53:49;43.10;;;17.23;;
70707;SDS011;58277;47.316;18.908;2023-01-24T15:56:16;44.50;;;18.50;;
70707;SDS011;58277;47.316;18.908;2023-01-24T15:58:43;39.65;;;16.77;;
70707;SDS011;58277;47.316;18.908;2023-01-24T16:01:09;44.63;;;17.88;;
70707;SDS011;58277;47.316;18.908;2023-01-24T16:03:31;38.60;;;15.75;;
70707;SDS011;58277;47.316;18.908;2023-01-24T16:05:54;42.88;;;16.98;;
70707;SDS011;58277;47.316;18.908;2023-01-24T16:08:17;41.03;;;17.27;;
70707;SDS011;58277;47.316;18.908;2023-01-24T16:10:40;43.97;;;17.70;;
70707;SDS011;58277;47.316;18.908;2023-01-24T16:13:04;41.92;;;17.42;;
70707;SDS011;58277;47.316;18.908;2023-01-24T16:15:26;47.63;;;18.45;;
70707;SDS011;58277;47.316;18.908;2023-01-24T16:17:49;42.97;;;17.45;;
70707;SDS011;58277;47.316;18.908;2023-01-24T16:20:17;46.13;;;17.83;;
70707;SDS011;58277;47.316;18.908;2023-01-24T16:22:44;43.03;;;17.83;;
70707;SDS011;58277;47.316;18.908;2023-01-24T16:25:10;44.50;;;18.33;;
70707;SDS011;58277;47.316;18.908;2023-01-24T16:27:33;43.85;;;17.77;;
70707;SDS011;58277;47.316;18.908;2023-01-24T16:29:56;49.17;;;19.23;;
70707;SDS011;58277;47.316;18.908;2023-01-24T16:32:20;45.47;;;19.10;;
70707;SDS011;58277;47.316;18.908;2023-01-24T16:34:45;48.03;;;19.40;;
70707;SDS011;58277;47.316;18.908;2023-01-24T16:37:08;52.15;;;20.23;;
70707;SDS011;58277;47.316;18.908;2023-01-24T16:39:31;51.80;;;20.55;;